sensor_id;sensor_type;location;lat;lon;timestamp;temperature;humidity
9849;DHT22;4963;51.444;6.528;2022-10-15T00:00:08;13.60;99.90
9849;DHT22;4963;51.444;6.528;2022-10-15T00:02:35;13.60;99.90
9849;DHT22;4963;51.444;6.528;2022-10-15T00:05:01;13.60;99.90
9849;DHT22;4963;51.444;6.528;2022-10-15T00:07:28;13.60;99.90
9849;DHT22;4963;51.444;6.528;2022-10-15T00:09:55;13.50;99.90
9849;DHT22;4963;51.444;6.528;2022-10-15T00:12:23;13.50;99.90
9849;DHT22;4963;51.444;6.528;2022-10-15T00:14:50;13.50;99.90
9849;DHT22;4963;51.444;6.528;2022-10-15T00:17:17;13.50;99.90
9849;DHT22;4963;51.444;6.528;2022-10-15T00:19:43;13.50;99.90
9849;DHT22;4963;51.444;6.528;2022-10-15T00:22:10;13.50;99.90
9849;DHT22;4963;51.444;6.528;2022-10-15T00:24:37;13.50;99.90
9849;DHT22;4963;51.444;6.528;2022-10-15T00:27:04;13.50;99.90
9849;DHT22;4963;51.444;6.528;2022-10-15T00:29:32;13.50;99.90
9849;DHT22;4963;51.444;6.528;2022-10-15T00:31:59;13.50;99.90
9849;DHT22;4963;51.444;6.528;2022-10-15T00:34:25;13.50;99.90
9849;DHT22;4963;51.444;6.528;2022-10-15T00:36:52;13.40;99.90
9849;DHT22;4963;51.444;6.528;2022-10-15T00:39:19;13.40;99.90
9849;DHT22;4963;51.444;6.528;2022-10-15T00:41:46;13.40;99.90
9849;DHT22;4963;51.444;6.528;2022-10-15T00:44:47;13.40;99.90
9849;DHT22;4963;51.444;6.528;2022-10-15T00:47:17;13.40;99.90
9849;DHT22;4963;51.444;6.528;2022-10-15T00:49:47;13.30;99.90
9849;DHT22;4963;51.444;6.528;2022-10-15T00:52:18;13.30;99.90
9849;DHT22;4963;51.444;6.528;2022-10-15T00:54:50;13.30;99.90
9849;DHT22;4963;51.444;6.528;2022-10-15T00:57:18;13.30;99.90
9849;DHT22;4963;51.444;6.528;2022-10-15T00:59:50;13.20;99.90
9849;DHT22;4963;51.444;6.528;2022-10-15T01:02:19;13.20;99.90
9849;DHT22;4963;51.444;6.528;2022-10-15T01:04:47;13.20;99.90
9849;DHT22;4963;51.444;6.528;2022-10-15T01:07:14;13.20;99.90
9849;DHT22;4963;51.444;6.528;2022-10-15T01:09:41;13.10;99.90
9849;DHT22;4963;51.444;6.528;2022-10-15T01:12:13;13.10;99.90
9849;DHT22;4963;51.444;6.528;2022-10-15T01:14:51;13.10;99.90
9849;DHT22;4963;51.444;6.528;2022-10-15T01:17:27;13.10;99.90
9849;DHT22;4963;51.444;6.528;2022-10-15T01:23:44;13.00;99.90
9849;DHT22;4963;51.444;6.528;2022-10-15T01:26:44;13.00;99.90
9849;DHT22;4963;51.444;6.528;2022-10-15T01:29:23;12.90;99.90
9849;DHT22;4963;51.444;6.528;2022-10-15T01:32:01;12.90;99.90
9849;DHT22;4963;51.444;6.528;2022-10-15T01:34:33;12.90;99.90
9849;DHT22;4963;51.444;6.528;2022-10-15T01:37:06;12.90;99.90
9849;DHT22;4963;51.444;6.528;2022-10-15T01:39:38;13.00;99.90
9849;DHT22;4963;51.444;6.528;2022-10-15T01:42:14;13.00;99.90
9849;DHT22;4963;51.444;6.528;2022-10-15T01:44:46;13.00;99.90
9849;DHT22;4963;51.444;6.528;2022-10-15T01:47:21;13.00;99.90
9849;DHT22;4963;51.444;6.528;2022-10-15T01:49:51;13.00;99.90
9849;DHT22;4963;51.444;6.528;2022-10-15T01:52:22;13.10;99.90
9849;DHT22;4963;51.444;6.528;2022-10-15T01:54:50;13.10;99.90
9849;DHT22;4963;51.444;6.528;2022-10-15T01:57:19;13.10;99.90
9849;DHT22;4963;51.444;6.528;2022-10-15T01:59:47;13.10;99.90
9849;DHT22;4963;51.444;6.528;2022-10-15T02:02:14;13.10;99.90
9849;DHT22;4963;51.444;6.528;2022-10-15T02:04:42;13.10;99.90
9849;DHT22;4963;51.444;6.528;2022-10-15T02:07:11;13.10;99.90
9849;DHT22;4963;51.444;6.528;2022-10-15T02:09:45;13.10;99.90
9849;DHT22;4963;51.444;6.528;2022-10-15T02:12:27;13.00;99.90
9849;DHT22;4963;51.444;6.528;2022-10-15T02:15:00;13.10;99.90
9849;DHT22;4963;51.444;6.528;2022-10-15T02:17:37;13.00;99.90
9849;DHT22;4963;51.444;6.528;2022-10-15T02:20:10;13.10;99.90
9849;DHT22;4963;51.444;6.528;2022-10-15T02:22:42;13.10;99.90
9849;DHT22;4963;51.444;6.528;2022-10-15T02:25:14;13.10;99.90
9849;DHT22;4963;51.444;6.528;2022-10-15T02:27:43;13.10;99.90
9849;DHT22;4963;51.444;6.528;2022-10-15T02:30:12;13.10;99.90
9849;DHT22;4963;51.444;6.528;2022-10-15T02:32:40;13.10;99.90
9849;DHT22;4963;51.444;6.528;2022-10-15T02:35:09;13.10;99.90
9849;DHT22;4963;51.444;6.528;2022-10-15T02:37:39;13.10;99.90
9849;DHT22;4963;51.444;6.528;2022-10-15T02:40:09;13.10;99.90
9849;DHT22;4963;51.444;6.528;2022-10-15T02:42:36;13.10;99.90
9849;DHT22;4963;51.444;6.528;2022-10-15T02:45:04;13.10;99.90
9849;DHT22;4963;51.444;6.528;2022-10-15T02:47:30;13.10;99.90
9849;DHT22;4963;51.444;6.528;2022-10-15T02:49:57;13.10;99.90
9849;DHT22;4963;51.444;6.528;2022-10-15T02:52:25;13.10;99.90
9849;DHT22;4963;51.444;6.528;2022-10-15T02:54:52;13.10;99.90
9849;DHT22;4963;51.444;6.528;2022-10-15T02:57:19;13.10;99.90
9849;DHT22;4963;51.444;6.528;2022-10-15T02:59:45;13.10;99.90
9849;DHT22;4963;51.444;6.528;2022-10-15T03:02:12;13.10;99.90
9849;DHT22;4963;51.444;6.528;2022-10-15T03:04:39;13.10;99.90
9849;DHT22;4963;51.444;6.528;2022-10-15T03:07:06;13.00;99.90
9849;DHT22;4963;51.444;6.528;2022-10-15T03:09:34;13.00;99.90
9849;DHT22;4963;51.444;6.528;2022-10-15T03:12:01;13.00;99.90
9849;DHT22;4963;51.444;6.528;2022-10-15T03:14:27;13.00;99.90
9849;DHT22;4963;51.444;6.528;2022-10-15T03:16:54;13.00;99.90
9849;DHT22;4963;51.444;6.528;2022-10-15T03:19:21;13.00;99.90
9849;DHT22;4963;51.444;6.528;2022-10-15T03:21:48;13.00;99.90
9849;DHT22;4963;51.444;6.528;2022-10-15T03:24:14;12.90;99.90
9849;DHT22;4963;51.444;6.528;2022-10-15T03:26:42;12.90;99.90
9849;DHT22;4963;51.444;6.528;2022-10-15T03:29:09;13.00;99.90
9849;DHT22;4963;51.444;6.528;2022-10-15T03:31:36;13.00;99.90
9849;DHT22;4963;51.444;6.528;2022-10-15T03:34:03;13.00;99.90
9849;DHT22;4963;51.444;6.528;2022-10-15T03:36:29;13.00;99.90
9849;DHT22;4963;51.444;6.528;2022-10-15T03:38:56;13.00;99.90
9849;DHT22;4963;51.444;6.528;2022-10-15T03:41:23;13.00;99.90
9849;DHT22;4963;51.444;6.528;2022-10-15T03:43:51;13.00;99.90
9849;DHT22;4963;51.444;6.528;2022-10-15T03:46:18;13.10;99.90
9849;DHT22;4963;51.444;6.528;2022-10-15T03:48:47;13.10;99.90
9849;DHT22;4963;51.444;6.528;2022-10-15T03:51:14;13.10;99.90
9849;DHT22;4963;51.444;6.528;2022-10-15T03:53:41;13.10;99.90
9849;DHT22;4963;51.444;6.528;2022-10-15T03:56:08;13.10;99.90
9849;DHT22;4963;51.444;6.528;2022-10-15T03:58:34;13.10;99.90
9849;DHT22;4963;51.444;6.528;2022-10-15T04:01:07;13.10;99.90
9849;DHT22;4963;51.444;6.528;2022-10-15T04:03:34;13.10;99.90
9849;DHT22;4963;51.444;6.528;2022-10-15T04:06:01;13.10;99.90
9849;DHT22;4963;51.444;6.528;2022-10-15T04:08:28;13.10;99.90
9849;DHT22;4963;51.444;6.528;2022-10-15T04:10:55;13.10;99.90
9849;DHT22;4963;51.444;6.528;2022-10-15T04:13:22;13.10;99.90
9849;DHT22;4963;51.444;6.528;2022-10-15T04:15:48;13.20;99.90
9849;DHT22;4963;51.444;6.528;2022-10-15T04:18:17;13.10;99.90
9849;DHT22;4963;51.444;6.528;2022-10-15T04:20:45;13.10;99.90
9849;DHT22;4963;51.444;6.528;2022-10-15T04:23:12;13.10;99.90
9849;DHT22;4963;51.444;6.528;2022-10-15T04:25:39;13.10;99.90
9849;DHT22;4963;51.444;6.528;2022-10-15T04:28:05;13.10;99.90
9849;DHT22;4963;51.444;6.528;2022-10-15T04:30:32;13.10;99.90
9849;DHT22;4963;51.444;6.528;2022-10-15T04:32:59;13.10;99.90
9849;DHT22;4963;51.444;6.528;2022-10-15T04:35:27;13.10;99.90
9849;DHT22;4963;51.444;6.528;2022-10-15T04:37:56;13.00;99.90
9849;DHT22;4963;51.444;6.528;2022-10-15T04:40:23;13.00;99.90
9849;DHT22;4963;51.444;6.528;2022-10-15T04:42:50;13.00;99.90
9849;DHT22;4963;51.444;6.528;2022-10-15T04:45:17;13.00;99.90
9849;DHT22;4963;51.444;6.528;2022-10-15T04:47:44;13.00;99.90
9849;DHT22;4963;51.444;6.528;2022-10-15T04:50:10;13.00;99.90
9849;DHT22;4963;51.444;6.528;2022-10-15T04:52:39;13.10;99.90
9849;DHT22;4963;51.444;6.528;2022-10-15T04:55:06;13.10;99.90
9849;DHT22;4963;51.444;6.528;2022-10-15T04:57:33;13.10;99.90
9849;DHT22;4963;51.444;6.528;2022-10-15T05:00:00;13.10;99.90
9849;DHT22;4963;51.444;6.528;2022-10-15T05:02:26;13.10;99.90
9849;DHT22;4963;51.444;6.528;2022-10-15T05:04:53;13.10;99.90
9849;DHT22;4963;51.444;6.528;2022-10-15T05:07:20;13.10;99.90
9849;DHT22;4963;51.444;6.528;2022-10-15T05:09:48;13.10;99.90
9849;DHT22;4963;51.444;6.528;2022-10-15T05:12:15;13.10;99.90
9849;DHT22;4963;51.444;6.528;2022-10-15T05:14:41;13.10;99.90
9849;DHT22;4963;51.444;6.528;2022-10-15T05:17:08;13.10;99.90
9849;DHT22;4963;51.444;6.528;2022-10-15T05:19:35;13.10;99.90
9849;DHT22;4963;51.444;6.528;2022-10-15T05:22:02;13.10;99.90
9849;DHT22;4963;51.444;6.528;2022-10-15T05:24:28;13.10;99.90
9849;DHT22;4963;51.444;6.528;2022-10-15T05:26:56;13.10;99.90
9849;DHT22;4963;51.444;6.528;2022-10-15T05:29:23;13.10;99.90
9849;DHT22;4963;51.444;6.528;2022-10-15T05:31:50;13.10;99.90
9849;DHT22;4963;51.444;6.528;2022-10-15T05:34:17;13.10;99.90
9849;DHT22;4963;51.444;6.528;2022-10-15T05:36:44;13.10;99.90
9849;DHT22;4963;51.444;6.528;2022-10-15T05:39:10;13.00;99.90
9849;DHT22;4963;51.444;6.528;2022-10-15T05:41:38;13.00;99.90
9849;DHT22;4963;51.444;6.528;2022-10-15T05:44:06;13.00;99.90
9849;DHT22;4963;51.444;6.528;2022-10-15T05:46:33;13.00;99.90
9849;DHT22;4963;51.444;6.528;2022-10-15T05:49:00;13.00;99.90
9849;DHT22;4963;51.444;6.528;2022-10-15T05:51:27;13.00;99.90
9849;DHT22;4963;51.444;6.528;2022-10-15T05:53:54;13.00;99.90
9849;DHT22;4963;51.444;6.528;2022-10-15T05:56:21;13.00;99.90
9849;DHT22;4963;51.444;6.528;2022-10-15T05:58:49;12.90;99.90
9849;DHT22;4963;51.444;6.528;2022-10-15T06:01:17;12.90;99.90
9849;DHT22;4963;51.444;6.528;2022-10-15T06:03:44;12.90;99.90
9849;DHT22;4963;51.444;6.528;2022-10-15T06:06:15;12.90;99.90
9849;DHT22;4963;51.444;6.528;2022-10-15T06:08:42;12.90;99.90
9849;DHT22;4963;51.444;6.528;2022-10-15T06:11:09;12.80;99.90
9849;DHT22;4963;51.444;6.528;2022-10-15T06:13:38;12.80;99.90
9849;DHT22;4963;51.444;6.528;2022-10-15T06:16:05;12.90;99.90
9849;DHT22;4963;51.444;6.528;2022-10-15T06:18:34;12.90;99.90
9849;DHT22;4963;51.444;6.528;2022-10-15T06:21:01;12.90;99.90
9849;DHT22;4963;51.444;6.528;2022-10-15T06:23:28;12.90;99.90
9849;DHT22;4963;51.444;6.528;2022-10-15T06:25:55;13.00;99.90
9849;DHT22;4963;51.444;6.528;2022-10-15T06:28:22;13.00;99.90
9849;DHT22;4963;51.444;6.528;2022-10-15T06:30:48;13.00;99.90
9849;DHT22;4963;51.444;6.528;2022-10-15T06:33:15;13.00;99.90
9849;DHT22;4963;51.444;6.528;2022-10-15T06:35:44;13.00;99.90
9849;DHT22;4963;51.444;6.528;2022-10-15T06:38:10;13.00;99.90
9849;DHT22;4963;51.444;6.528;2022-10-15T06:40:37;13.00;99.90
9849;DHT22;4963;51.444;6.528;2022-10-15T06:43:05;13.10;99.90
9849;DHT22;4963;51.444;6.528;2022-10-15T06:45:32;13.00;99.90
9849;DHT22;4963;51.444;6.528;2022-10-15T06:48:01;13.10;99.90
9849;DHT22;4963;51.444;6.528;2022-10-15T06:50:28;13.10;99.90
9849;DHT22;4963;51.444;6.528;2022-10-15T06:52:56;13.10;99.90
9849;DHT22;4963;51.444;6.528;2022-10-15T06:55:22;13.10;99.90
9849;DHT22;4963;51.444;6.528;2022-10-15T06:57:49;13.20;99.90
9849;DHT22;4963;51.444;6.528;2022-10-15T07:00:16;13.20;99.90
9849;DHT22;4963;51.444;6.528;2022-10-15T07:02:43;13.20;99.90
9849;DHT22;4963;51.444;6.528;2022-10-15T07:05:10;13.20;99.90
9849;DHT22;4963;51.444;6.528;2022-10-15T07:07:36;13.30;99.90
9849;DHT22;4963;51.444;6.528;2022-10-15T07:10:05;13.30;99.90
9849;DHT22;4963;51.444;6.528;2022-10-15T07:12:33;13.30;99.90
9849;DHT22;4963;51.444;6.528;2022-10-15T07:15:00;13.40;99.90
9849;DHT22;4963;51.444;6.528;2022-10-15T07:17:27;13.40;99.90
9849;DHT22;4963;51.444;6.528;2022-10-15T07:19:55;13.50;99.90
9849;DHT22;4963;51.444;6.528;2022-10-15T07:22:21;13.60;99.90
9849;DHT22;4963;51.444;6.528;2022-10-15T07:24:48;13.60;99.90
9849;DHT22;4963;51.444;6.528;2022-10-15T07:27:16;13.60;99.90
9849;DHT22;4963;51.444;6.528;2022-10-15T07:29:43;13.70;99.90
9849;DHT22;4963;51.444;6.528;2022-10-15T07:32:10;13.70;99.90
9849;DHT22;4963;51.444;6.528;2022-10-15T07:34:36;13.70;99.90
9849;DHT22;4963;51.444;6.528;2022-10-15T07:37:03;13.70;99.90
9849;DHT22;4963;51.444;6.528;2022-10-15T07:39:30;13.70;99.90
9849;DHT22;4963;51.444;6.528;2022-10-15T07:41:57;13.70;99.90
9849;DHT22;4963;51.444;6.528;2022-10-15T07:44:25;13.80;99.90
9849;DHT22;4963;51.444;6.528;2022-10-15T07:46:52;13.90;99.90
9849;DHT22;4963;51.444;6.528;2022-10-15T07:49:18;13.90;99.90
9849;DHT22;4963;51.444;6.528;2022-10-15T07:51:45;14.00;99.90
9849;DHT22;4963;51.444;6.528;2022-10-15T07:54:12;13.90;99.90
9849;DHT22;4963;51.444;6.528;2022-10-15T07:56:39;14.00;99.90
9849;DHT22;4963;51.444;6.528;2022-10-15T07:59:07;14.00;99.90
9849;DHT22;4963;51.444;6.528;2022-10-15T08:01:35;14.10;99.90
9849;DHT22;4963;51.444;6.528;2022-10-15T08:04:02;14.10;99.90
9849;DHT22;4963;51.444;6.528;2022-10-15T08:06:30;14.10;99.90
9849;DHT22;4963;51.444;6.528;2022-10-15T08:08:57;14.20;99.90
9849;DHT22;4963;51.444;6.528;2022-10-15T08:11:24;14.20;99.90
9849;DHT22;4963;51.444;6.528;2022-10-15T08:13:51;14.30;99.90
9849;DHT22;4963;51.444;6.528;2022-10-15T08:16:18;14.40;99.90
9849;DHT22;4963;51.444;6.528;2022-10-15T08:18:46;14.50;99.90
9849;DHT22;4963;51.444;6.528;2022-10-15T08:21:13;14.60;99.90
9849;DHT22;4963;51.444;6.528;2022-10-15T08:23:40;14.70;99.90
9849;DHT22;4963;51.444;6.528;2022-10-15T08:26:06;14.70;99.90
9849;DHT22;4963;51.444;6.528;2022-10-15T08:28:34;14.70;99.90
9849;DHT22;4963;51.444;6.528;2022-10-15T08:31:02;14.80;99.90
9849;DHT22;4963;51.444;6.528;2022-10-15T08:33:30;14.80;99.90
9849;DHT22;4963;51.444;6.528;2022-10-15T08:35:58;14.80;99.90
9849;DHT22;4963;51.444;6.528;2022-10-15T08:38:25;14.80;99.90
9849;DHT22;4963;51.444;6.528;2022-10-15T08:40:54;14.80;99.90
9849;DHT22;4963;51.444;6.528;2022-10-15T08:43:24;14.80;99.90
9849;DHT22;4963;51.444;6.528;2022-10-15T08:45:55;14.90;99.90
9849;DHT22;4963;51.444;6.528;2022-10-15T08:48:27;14.90;99.90
9849;DHT22;4963;51.444;6.528;2022-10-15T08:50:58;15.00;99.90
9849;DHT22;4963;51.444;6.528;2022-10-15T08:53:27;15.10;99.90
9849;DHT22;4963;51.444;6.528;2022-10-15T08:55:59;15.10;99.90
9849;DHT22;4963;51.444;6.528;2022-10-15T08:58:38;15.10;99.90
9849;DHT22;4963;51.444;6.528;2022-10-15T09:01:13;15.20;99.90
9849;DHT22;4963;51.444;6.528;2022-10-15T09:03:51;15.20;99.90
9849;DHT22;4963;51.444;6.528;2022-10-15T09:06:23;15.20;99.90
9849;DHT22;4963;51.444;6.528;2022-10-15T09:08:57;15.30;99.90
9849;DHT22;4963;51.444;6.528;2022-10-15T09:11:33;15.40;99.90
9849;DHT22;4963;51.444;6.528;2022-10-15T09:14:03;15.40;99.90
9849;DHT22;4963;51.444;6.528;2022-10-15T09:16:34;15.50;99.90
9849;DHT22;4963;51.444;6.528;2022-10-15T09:19:05;15.60;99.90
9849;DHT22;4963;51.444;6.528;2022-10-15T09:21:38;15.60;99.90
9849;DHT22;4963;51.444;6.528;2022-10-15T09:24:08;15.70;99.90
9849;DHT22;4963;51.444;6.528;2022-10-15T09:26:46;15.70;99.90
9849;DHT22;4963;51.444;6.528;2022-10-15T09:29:19;15.80;99.90
9849;DHT22;4963;51.444;6.528;2022-10-15T09:31:53;15.80;99.90
9849;DHT22;4963;51.444;6.528;2022-10-15T09:34:26;15.90;99.90
9849;DHT22;4963;51.444;6.528;2022-10-15T09:36:59;15.80;99.90
9849;DHT22;4963;51.444;6.528;2022-10-15T09:39:39;15.80;99.90
9849;DHT22;4963;51.444;6.528;2022-10-15T09:42:18;15.80;99.90
9849;DHT22;4963;51.444;6.528;2022-10-15T09:44:47;15.80;99.90
9849;DHT22;4963;51.444;6.528;2022-10-15T09:47:16;15.80;99.90
9849;DHT22;4963;51.444;6.528;2022-10-15T09:49:45;15.70;99.90
9849;DHT22;4963;51.444;6.528;2022-10-15T09:52:19;15.70;99.90
9849;DHT22;4963;51.444;6.528;2022-10-15T09:54:58;15.80;99.90
9849;DHT22;4963;51.444;6.528;2022-10-15T09:57:27;15.70;99.90
9849;DHT22;4963;51.444;6.528;2022-10-15T09:59:57;15.60;99.90
9849;DHT22;4963;51.444;6.528;2022-10-15T10:02:26;15.70;99.90
9849;DHT22;4963;51.444;6.528;2022-10-15T10:04:53;15.60;99.90
9849;DHT22;4963;51.444;6.528;2022-10-15T10:07:30;15.60;99.90
9849;DHT22;4963;51.444;6.528;2022-10-15T10:10:00;15.70;99.90
9849;DHT22;4963;51.444;6.528;2022-10-15T10:12:30;15.60;99.90
9849;DHT22;4963;51.444;6.528;2022-10-15T10:15:01;15.70;99.90
9849;DHT22;4963;51.444;6.528;2022-10-15T10:17:29;15.70;99.90
9849;DHT22;4963;51.444;6.528;2022-10-15T10:20:11;15.80;99.90
9849;DHT22;4963;51.444;6.528;2022-10-15T10:22:44;15.80;99.90
9849;DHT22;4963;51.444;6.528;2022-10-15T10:25:29;15.80;99.90
9849;DHT22;4963;51.444;6.528;2022-10-15T10:27:58;15.80;99.90
9849;DHT22;4963;51.444;6.528;2022-10-15T10:30:32;15.80;99.90
9849;DHT22;4963;51.444;6.528;2022-10-15T10:33:00;15.80;99.90
9849;DHT22;4963;51.444;6.528;2022-10-15T10:35:34;15.70;99.90
9849;DHT22;4963;51.444;6.528;2022-10-15T10:38:02;15.70;99.90
9849;DHT22;4963;51.444;6.528;2022-10-15T10:40:33;15.60;99.90
9849;DHT22;4963;51.444;6.528;2022-10-15T10:43:10;15.60;99.90
9849;DHT22;4963;51.444;6.528;2022-10-15T10:45:37;15.60;99.90
9849;DHT22;4963;51.444;6.528;2022-10-15T10:48:33;15.50;99.90
9849;DHT22;4963;51.444;6.528;2022-10-15T10:51:06;15.40;99.90
9849;DHT22;4963;51.444;6.528;2022-10-15T10:53:41;15.40;99.90
9849;DHT22;4963;51.444;6.528;2022-10-15T10:56:10;15.40;99.90
9849;DHT22;4963;51.444;6.528;2022-10-15T10:58:38;15.40;99.90
9849;DHT22;4963;51.444;6.528;2022-10-15T11:01:05;15.40;99.90
9849;DHT22;4963;51.444;6.528;2022-10-15T11:03:34;15.40;99.90
9849;DHT22;4963;51.444;6.528;2022-10-15T11:06:15;15.30;99.90
9849;DHT22;4963;51.444;6.528;2022-10-15T11:09:01;15.40;99.90
9849;DHT22;4963;51.444;6.528;2022-10-15T11:11:34;15.40;99.90
9849;DHT22;4963;51.444;6.528;2022-10-15T11:14:07;15.40;99.90
9849;DHT22;4963;51.444;6.528;2022-10-15T11:16:47;15.40;99.90
9849;DHT22;4963;51.444;6.528;2022-10-15T11:19:22;15.50;99.90
9849;DHT22;4963;51.444;6.528;2022-10-15T11:22:02;15.50;99.90
9849;DHT22;4963;51.444;6.528;2022-10-15T11:24:41;15.60;99.90
9849;DHT22;4963;51.444;6.528;2022-10-15T11:27:22;15.60;99.90
9849;DHT22;4963;51.444;6.528;2022-10-15T11:30:00;15.70;99.90
9849;DHT22;4963;51.444;6.528;2022-10-15T11:32:38;15.70;99.90
9849;DHT22;4963;51.444;6.528;2022-10-15T11:35:23;15.80;99.90
9849;DHT22;4963;51.444;6.528;2022-10-15T11:38:01;15.80;99.90
9849;DHT22;4963;51.444;6.528;2022-10-15T11:40:37;15.80;99.90
9849;DHT22;4963;51.444;6.528;2022-10-15T11:43:16;15.90;99.90
9849;DHT22;4963;51.444;6.528;2022-10-15T11:45:57;15.90;99.90
9849;DHT22;4963;51.444;6.528;2022-10-15T11:48:36;16.00;99.90
9849;DHT22;4963;51.444;6.528;2022-10-15T11:51:10;16.00;99.90
9849;DHT22;4963;51.444;6.528;2022-10-15T11:54:12;16.00;99.90
9849;DHT22;4963;51.444;6.528;2022-10-15T11:56:44;16.10;99.90
9849;DHT22;4963;51.444;6.528;2022-10-15T11:59:17;16.10;99.90
9849;DHT22;4963;51.444;6.528;2022-10-15T12:01:48;16.20;99.90
9849;DHT22;4963;51.444;6.528;2022-10-15T12:04:21;16.20;99.90
9849;DHT22;4963;51.444;6.528;2022-10-15T12:06:53;16.30;99.90
9849;DHT22;4963;51.444;6.528;2022-10-15T12:09:25;16.30;99.90
9849;DHT22;4963;51.444;6.528;2022-10-15T12:12:01;16.40;99.90
9849;DHT22;4963;51.444;6.528;2022-10-15T12:14:34;16.50;99.90
9849;DHT22;4963;51.444;6.528;2022-10-15T12:17:10;16.50;99.90
9849;DHT22;4963;51.444;6.528;2022-10-15T12:19:44;16.60;99.90
9849;DHT22;4963;51.444;6.528;2022-10-15T12:22:31;16.70;99.90
9849;DHT22;4963;51.444;6.528;2022-10-15T12:24:58;16.70;99.90
9849;DHT22;4963;51.444;6.528;2022-10-15T12:27:32;16.80;99.90
9849;DHT22;4963;51.444;6.528;2022-10-15T12:30:20;16.80;99.90
9849;DHT22;4963;51.444;6.528;2022-10-15T12:32:48;16.90;99.90
9849;DHT22;4963;51.444;6.528;2022-10-15T12:35:22;16.90;99.90
9849;DHT22;4963;51.444;6.528;2022-10-15T12:37:49;16.90;99.90
9849;DHT22;4963;51.444;6.528;2022-10-15T12:40:26;17.00;99.90
9849;DHT22;4963;51.444;6.528;2022-10-15T12:42:55;17.00;99.90
9849;DHT22;4963;51.444;6.528;2022-10-15T12:45:34;17.00;99.90
9849;DHT22;4963;51.444;6.528;2022-10-15T12:48:28;17.10;99.90
9849;DHT22;4963;51.444;6.528;2022-10-15T12:54:34;17.10;99.90
9849;DHT22;4963;51.444;6.528;2022-10-15T12:57:02;17.20;99.90
9849;DHT22;4963;51.444;6.528;2022-10-15T12:59:54;17.30;99.90
9849;DHT22;4963;51.444;6.528;2022-10-15T13:02:34;17.30;99.90
9849;DHT22;4963;51.444;6.528;2022-10-15T13:05:02;17.30;99.90
9849;DHT22;4963;51.444;6.528;2022-10-15T13:07:31;17.30;99.90
9849;DHT22;4963;51.444;6.528;2022-10-15T13:10:01;17.40;99.90
9849;DHT22;4963;51.444;6.528;2022-10-15T13:12:28;17.40;99.90
9849;DHT22;4963;51.444;6.528;2022-10-15T13:14:59;17.40;99.90
9849;DHT22;4963;51.444;6.528;2022-10-15T13:17:29;17.50;99.90
9849;DHT22;4963;51.444;6.528;2022-10-15T13:19:58;17.50;99.90
9849;DHT22;4963;51.444;6.528;2022-10-15T13:22:28;17.60;99.90
9849;DHT22;4963;51.444;6.528;2022-10-15T13:24:56;17.60;99.90
9849;DHT22;4963;51.444;6.528;2022-10-15T13:27:24;17.70;99.90
9849;DHT22;4963;51.444;6.528;2022-10-15T13:29:57;17.70;99.90
9849;DHT22;4963;51.444;6.528;2022-10-15T13:32:26;17.70;99.90
9849;DHT22;4963;51.444;6.528;2022-10-15T13:34:53;17.80;99.90
9849;DHT22;4963;51.444;6.528;2022-10-15T13:37:26;17.70;99.90
9849;DHT22;4963;51.444;6.528;2022-10-15T13:39:55;17.70;99.90
9849;DHT22;4963;51.444;6.528;2022-10-15T13:42:23;17.70;99.90
9849;DHT22;4963;51.444;6.528;2022-10-15T13:45:02;17.70;99.90
9849;DHT22;4963;51.444;6.528;2022-10-15T13:47:33;17.70;99.90
9849;DHT22;4963;51.444;6.528;2022-10-15T13:50:11;17.70;99.90
9849;DHT22;4963;51.444;6.528;2022-10-15T13:52:39;17.70;99.90
9849;DHT22;4963;51.444;6.528;2022-10-15T13:55:15;17.70;99.90
9849;DHT22;4963;51.444;6.528;2022-10-15T13:57:43;17.70;99.90
9849;DHT22;4963;51.444;6.528;2022-10-15T14:00:21;17.70;99.90
9849;DHT22;4963;51.444;6.528;2022-10-15T14:03:13;17.70;99.90
9849;DHT22;4963;51.444;6.528;2022-10-15T14:05:40;17.70;99.90
9849;DHT22;4963;51.444;6.528;2022-10-15T14:08:14;17.70;99.90
9849;DHT22;4963;51.444;6.528;2022-10-15T14:10:41;17.70;99.90
9849;DHT22;4963;51.444;6.528;2022-10-15T14:13:08;17.70;99.90
9849;DHT22;4963;51.444;6.528;2022-10-15T14:15:47;17.70;99.90
9849;DHT22;4963;51.444;6.528;2022-10-15T14:18:17;17.80;99.90
9849;DHT22;4963;51.444;6.528;2022-10-15T14:20:51;17.70;99.90
9849;DHT22;4963;51.444;6.528;2022-10-15T14:23:21;17.70;99.90
9849;DHT22;4963;51.444;6.528;2022-10-15T14:25:53;17.70;99.90
9849;DHT22;4963;51.444;6.528;2022-10-15T14:28:21;17.70;99.90
9849;DHT22;4963;51.444;6.528;2022-10-15T14:30:49;17.70;99.90
9849;DHT22;4963;51.444;6.528;2022-10-15T14:33:41;17.70;99.90
9849;DHT22;4963;51.444;6.528;2022-10-15T14:36:13;17.70;99.90
9849;DHT22;4963;51.444;6.528;2022-10-15T14:38:40;17.60;99.90
9849;DHT22;4963;51.444;6.528;2022-10-15T14:41:21;17.60;99.90
9849;DHT22;4963;51.444;6.528;2022-10-15T14:44:00;17.60;99.90
9849;DHT22;4963;51.444;6.528;2022-10-15T14:46:35;17.60;99.90
9849;DHT22;4963;51.444;6.528;2022-10-15T14:49:02;17.60;99.90
9849;DHT22;4963;51.444;6.528;2022-10-15T14:51:29;17.60;99.90
9849;DHT22;4963;51.444;6.528;2022-10-15T14:53:56;17.60;99.90
9849;DHT22;4963;51.444;6.528;2022-10-15T14:56:28;17.60;99.90
9849;DHT22;4963;51.444;6.528;2022-10-15T14:58:56;17.60;99.90
9849;DHT22;4963;51.444;6.528;2022-10-15T15:01:24;17.60;99.90
9849;DHT22;4963;51.444;6.528;2022-10-15T15:03:54;17.50;99.90
9849;DHT22;4963;51.444;6.528;2022-10-15T15:06:21;17.60;99.90
9849;DHT22;4963;51.444;6.528;2022-10-15T15:08:48;17.60;99.90
9849;DHT22;4963;51.444;6.528;2022-10-15T15:11:18;17.60;99.90
9849;DHT22;4963;51.444;6.528;2022-10-15T15:13:45;17.60;99.90
9849;DHT22;4963;51.444;6.528;2022-10-15T15:16:14;17.60;99.90
9849;DHT22;4963;51.444;6.528;2022-10-15T15:18:42;17.60;99.90
9849;DHT22;4963;51.444;6.528;2022-10-15T15:21:15;17.60;99.90
9849;DHT22;4963;51.444;6.528;2022-10-15T15:23:42;17.50;99.90
9849;DHT22;4963;51.444;6.528;2022-10-15T15:26:09;17.50;99.90
9849;DHT22;4963;51.444;6.528;2022-10-15T15:28:36;17.50;99.90
9849;DHT22;4963;51.444;6.528;2022-10-15T15:31:05;17.50;99.90
9849;DHT22;4963;51.444;6.528;2022-10-15T15:33:33;17.50;99.90
9849;DHT22;4963;51.444;6.528;2022-10-15T15:36:02;17.50;99.90
9849;DHT22;4963;51.444;6.528;2022-10-15T15:38:31;17.50;99.90
9849;DHT22;4963;51.444;6.528;2022-10-15T15:41:02;17.50;99.90
9849;DHT22;4963;51.444;6.528;2022-10-15T15:43:29;17.40;99.90
9849;DHT22;4963;51.444;6.528;2022-10-15T15:45:56;17.40;99.90
9849;DHT22;4963;51.444;6.528;2022-10-15T15:48:22;17.40;99.90
9849;DHT22;4963;51.444;6.528;2022-10-15T15:50:49;17.40;99.90
9849;DHT22;4963;51.444;6.528;2022-10-15T15:53:17;17.30;99.90
9849;DHT22;4963;51.444;6.528;2022-10-15T15:55:45;17.20;99.90
9849;DHT22;4963;51.444;6.528;2022-10-15T15:58:12;17.10;99.90
9849;DHT22;4963;51.444;6.528;2022-10-15T16:00:38;17.10;99.90
9849;DHT22;4963;51.444;6.528;2022-10-15T16:03:05;17.00;99.90
9849;DHT22;4963;51.444;6.528;2022-10-15T16:05:33;16.90;99.90
9849;DHT22;4963;51.444;6.528;2022-10-15T16:08:00;16.80;99.90
9849;DHT22;4963;51.444;6.528;2022-10-15T16:10:26;16.70;99.90
9849;DHT22;4963;51.444;6.528;2022-10-15T16:12:54;16.70;99.90
9849;DHT22;4963;51.444;6.528;2022-10-15T16:15:21;16.60;99.90
9849;DHT22;4963;51.444;6.528;2022-10-15T16:17:48;16.50;99.90
9849;DHT22;4963;51.444;6.528;2022-10-15T16:20:15;16.40;99.90
9849;DHT22;4963;51.444;6.528;2022-10-15T16:22:42;16.30;99.90
9849;DHT22;4963;51.444;6.528;2022-10-15T16:25:09;16.30;99.90
9849;DHT22;4963;51.444;6.528;2022-10-15T16:27:36;16.20;99.90